Aviation Digital Data Service (ADDS)

Output produced by METARs form (1619 UTC 03 June 2020)
found at http://www.aviationweather.gov/metar/data/
 
Forecast for: ZHCC (ZHENGZHOU , CN)
Text: TAF ZHCC 031502Z 0318/0418 18003MPS 7000 NSC TX40/0407Z TN23/0322Z
Forecast period: 1800 UTC 03 June 2020 to 1800 UTC 04 June 2020
Forecast type: FROM: standard forecast or significant change
Winds: from the S (180 degrees) at 7 MPH (6 knots; 3.1 m/s)
Visibility: 4 miles (7 km)
Ceiling: unknown
Clouds: missing
Weather: no significant weather forecast for this period